• Join FlightAware (Why Join?)
  • Login
  • US Flag 
08:08PM EST


 

Airport Tracker/Info


-or-


 

Live Flight TrackerFlight Track Log ✈ JUS327 ✈ 2013年 05月 02日 ✈ KLRD - KYIP

Flight Track Log - Related Links

Times and Time Zones

All times are in EDT time to prevent confusion due to time zone crossing. See the JUS327 flight status page for this flight to view local times or setup timezone preferences in your user account.

Time Position Orientation Groundspeed Altitude Reporting Facility
EDT Latitude Longitude Course Direction KTS MPH feet Rate Location/Type
12:55AM 27.5606 -99.4611 46° Northeast 145 167 1,500  Level Houston Center
12:56AM 27.5936 -99.4158 51° Northeast 196 226 3,400 1,980 Climbing Houston Center
12:57AM 27.6286 -99.3667 51° Northeast 198 228 5,500 1,920 Climbing Houston Center
12:58AM 27.9503 -98.9630 47° Northeast  Level FlightAware Approximate
12:58AM 27.6792 -99.3106 44° Northeast 232 267 7,300  Level Houston Center
12:59AM 28.0308 -98.8622 53° Northeast  Level FlightAware Approximate
12:59AM 27.7297 -99.2447 49° Northeast 259 298 9,500  Level Houston Center
01:00AM 28.1062 -98.7566 46° Northeast  Level FlightAware Approximate
01:00AM 27.7864 -99.1708 49° Northeast 291 335 10,800  Level Houston Center
01:01AM 27.8558 -99.0864 47° Northeast 337 388 12,000 1,560 Climbing Houston Center
01:02AM 27.9311 -99.0011 45° Northeast 372 428 14,000 1,920 Climbing Houston Center
01:03AM 28.0022 -98.9086 49° Northeast 386 444 15,900 1,800 Climbing Houston Center
01:04AM 28.0797 -98.8197 45° Northeast 395 455 17,700 1,440 Climbing Houston Center
01:05AM 28.1539 -98.7256 48° Northeast 399 459 18,900 1,140 Climbing Houston Center
01:06AM 28.2342 -98.6306 46° Northeast 415 478 20,000 1,140 Climbing Houston Center
01:07AM 28.3169 -98.5333 46° Northeast 426 490 21,200 1,260 Climbing Houston Center
01:08AM 28.3964 -98.4297 49° Northeast 433 498 22,600 1,260 Climbing Houston Center
01:09AM 28.4950 -98.3167 45° Northeast 440 506 23,800 960 Climbing Houston Center
01:10AM 28.5781 -98.2086 49° Northeast 451 519 24,600 900 Climbing Houston Center
01:11AM 28.6672 -98.1039 46° Northeast 460 529 25,600 840 Climbing Houston Center
01:12AM 28.7553 -97.9933 48° Northeast 468 539 26,400 780 Climbing Houston Center
01:13AM 28.8436 -97.8806 48° Northeast 476 548 27,200 720 Climbing Houston Center
01:14AM 28.9392 -97.7742 44° Northeast 479 551 27,900 840 Climbing Houston Center
01:15AM 29.0281 -97.6553 49° Northeast 489 563 28,900 1,020 Climbing Houston Center
01:16AM 29.1200 -97.5458 46° Northeast 480 552 30,000 960 Climbing Houston Center
01:17AM 29.2106 -97.4350 47° Northeast 477 549 30,900 900 Climbing Houston Center
01:18AM 29.2981 -97.3178 49° Northeast 481 554 31,800 780 Climbing Houston Center
01:19AM 29.3931 -97.2089 45° Northeast 480 552 32,500 600 Climbing Houston Center
01:20AM 29.4797 -97.0886 50° Northeast 481 554 33,100 600 Climbing Houston Center
01:21AM 29.5522 -96.9975 48° Northeast 479 551 33,700 600 Climbing Houston Center
01:22AM 29.6472 -96.8886 45° Northeast 476 548 34,400 540 Climbing Houston Center
01:23AM 29.7306 -96.7681 51° Northeast 481 554 34,900 240 Climbing Houston Center
01:24AM 29.8258 -96.6603 44° Northeast 479 551 35,000  Climbing Houston Center
01:25AM 29.9133 -96.5439 49° Northeast 481 554 35,000  Level Houston Center
01:26AM 30.0008 -96.4247 50° Northeast 485 558 35,000  Level Houston Center
01:27AM 30.1053 -96.3353 37° Northeast 473 544 35,000  Level Houston Center
01:28AM 30.2375 -96.2489 29° Northeast 460 529 35,000  Level Houston Center
01:29AM 30.3392 -96.1461 41° Northeast 479 551 35,000  Level Houston Center
01:30AM 30.4450 -96.0522 37° Northeast 477 549 35,000  Level Houston Center
01:31AM 30.5350 -95.9886 31° Northeast 468 539 35,000  Level Houston Center
01:32AM 30.6408 -95.8914 38° Northeast 493 567 35,000  Level Houston Center
01:33AM 30.7511 -95.7897 38° Northeast 484 557 35,000  Level Houston Center
01:34AM 30.8631 -95.7031 34° Northeast 483 556 35,000  Level Houston Center
01:35AM 30.9664 -95.6008 40° Northeast 489 563 35,000  Level Houston Center
01:36AM 31.0767 -95.5078 36° Northeast 483 556 35,000  Level Houston Center
01:37AM 31.1861 -95.4161 36° Northeast 479 551 35,000  Level Houston Center
01:38AM 31.2925 -95.3111 40° Northeast 497 572 35,000  Level Houston Center
01:38AM 31.3392 -95.2753 33° Northeast 490 564 35,000  Level Fort Worth Center
01:39AM 31.4506 -95.1853 35° Northeast 485 558 35,000  Level Fort Worth Center
01:40AM 31.5550 -95.0803 41° Northeast 485 558 35,000  Level Fort Worth Center
01:41AM 31.6658 -94.9822 37° Northeast 490 564 35,000  Level Fort Worth Center
01:42AM 31.7769 -94.8889 36° Northeast 490 564 35,000  Level Fort Worth Center
01:43AM 31.8792 -94.7858 41° Northeast 490 564 35,000  Level Fort Worth Center
01:44AM 31.9775 -94.7022 36° Northeast 485 558 35,000  Level Fort Worth Center
01:45AM 32.0861 -94.6058 37° Northeast 480 552 35,000  Level Fort Worth Center
01:46AM 32.1881 -94.4997 41° Northeast 480 552 35,000  Level Fort Worth Center
01:47AM 32.2986 -94.4050 36° Northeast 486 559 35,000  Level Fort Worth Center
01:48AM 32.4047 -94.3056 38° Northeast 486 559 35,000  Level Fort Worth Center
01:49AM 32.5106 -94.2036 39° Northeast 491 565 35,000  Level Fort Worth Center
01:50AM 32.6211 -94.1108 35° Northeast 485 558 35,000  Level Fort Worth Center
01:51AM 32.7267 -94.0056 40° Northeast 485 558 35,000  Level Fort Worth Center
01:52AM 32.8325 -93.9053 39° Northeast 485 558 35,000  Level Fort Worth Center
01:53AM 32.9425 -93.8094 36° Northeast 485 558 35,000  Level Fort Worth Center
01:55AM 33.1792 -93.5889 38° Northeast 482 555 35,000  Level Memphis Center
01:56AM 33.2842 -93.4833 40° Northeast 487 560 35,000  Level Memphis Center
01:57AM 33.3911 -93.3828 38° Northeast 487 560 35,000  Level Memphis Center
01:58AM 33.5039 -93.2844 36° Northeast 492 566 35,000  Level Memphis Center
01:59AM 33.6089 -93.1758 41° Northeast 492 566 35,000  Level Memphis Center
02:00AM 33.7175 -93.0767 37° Northeast 497 572 35,000  Level Memphis Center
02:01AM 33.8281 -92.9778 37° Northeast 491 565 35,000  Level Memphis Center
02:02AM 33.9283 -92.8706 42° Northeast 491 565 35,000  Level Memphis Center
02:03AM 34.0367 -92.7786 35° Northeast 479 551 35,000  Level Memphis Center
02:04AM 34.1367 -92.6708 42° Northeast 479 551 35,000  Level Memphis Center
02:05AM 34.2389 -92.5681 40° Northeast 473 544 35,000  Level Memphis Center
02:06AM 34.3469 -92.4703 37° Northeast 473 544 35,000  Level Memphis Center
02:07AM 34.4489 -92.3644 41° Northeast 478 550 35,000  Level Memphis Center
02:08AM 34.5464 -92.2708 38° Northeast 483 556 35,000  Level Memphis Center
02:09AM 34.6522 -92.1697 38° Northeast 483 556 35,000  Level Memphis Center
02:10AM 34.7536 -92.0633 41° Northeast 478 550 35,000  Level Memphis Center
02:11AM 34.8614 -91.9642 37° Northeast 478 550 35,000  Level Memphis Center
02:12AM 34.9692 -91.8572 39° Northeast 483 556 35,000  Level Memphis Center
02:13AM 35.0706 -91.7500 41° Northeast 483 556 35,000  Level Memphis Center
02:14AM 35.1781 -91.6503 37° Northeast 483 556 35,000  Level Memphis Center
02:15AM 35.2814 -91.5422 40° Northeast 483 556 35,000  Level Memphis Center
02:16AM 35.3867 -91.4344 40° Northeast 483 556 35,000  Level Memphis Center
02:17AM 35.5064 -91.3261 36° Northeast 478 550 35,000  Level Memphis Center
02:18AM 35.6031 -91.2150 43° Northeast 488 562 35,000  Level Memphis Center
02:19AM 35.7058 -91.1111 39° Northeast 488 562 35,000  Level Memphis Center
02:20AM 35.8128 -91.0097 38° Northeast 477 549 35,000  Level Memphis Center
02:21AM 35.9094 -90.8953 44° Northeast 477 549 35,000  Level Memphis Center
02:22AM 36.0181 -90.7933 37° Northeast 482 555 35,000  Level Memphis Center
02:23AM 36.1228 -90.6883 39° Northeast 487 560 35,000  Level Memphis Center
02:24AM 36.2253 -90.5783 41° Northeast 482 555 35,000  Level Memphis Center
02:25AM 36.3317 -90.4781 37° Northeast 482 555 35,000  Level Memphis Center
02:26AM 36.4317 -90.3647 42° Northeast 482 555 35,000  Level Memphis Center
02:27AM 36.5339 -90.2589 40° Northeast 476 548 35,000  Level Memphis Center
02:28AM 36.6400 -90.1528 39° Northeast 481 554 35,000  Level Memphis Center
02:29AM 36.7378 -90.0411 42° Northeast 481 554 35,000  Level Memphis Center
02:30AM 36.8458 -89.9369 38° Northeast 481 554 35,000  Level Memphis Center
02:31AM 36.9369 -89.8431 39° Northeast 481 554 35,000  Level Memphis Center
02:32AM 37.0344 -89.7281 43° Northeast 476 548 35,000  Level Memphis Center
02:33AM 37.1422 -89.6231 38° Northeast 476 548 35,000  Level Memphis Center
02:35AM 37.3369 -89.3975 43° Northeast 482 555 35,000  Level Kansas City Center
02:36AM 37.4439 -89.2931 38° Northeast 487 560 35,000  Level Kansas City Center
02:38AM 37.5459 -89.1798 41° Northeast  Level FlightAware Approximate
02:38AM 37.6422 -89.0647 41° Northeast 482 555 35,000  Level Kansas City Center
02:39AM 37.7508 -88.9636 36° Northeast 482 555 35,000  Level Kansas City Center
02:40AM 37.8542 -88.8411 43° Northeast 486 559 35,000  Level Kansas City Center
02:41AM 37.9528 -88.7264 43° Northeast 483 556 35,000  Level Kansas City Center
02:42AM 38.0606 -88.6214 37° Northeast 484 557 35,000  Level Kansas City Center
02:43AM 38.1564 -88.5011 45° Northeast 485 558 35,000  Level Kansas City Center
02:44AM 38.2581 -88.3897 41° Northeast 480 552 35,000  Level Kansas City Center
02:45AM 38.3644 -88.2808 39° Northeast 486 559 35,000  Level Kansas City Center
02:46AM 38.4625 -88.1583 44° Northeast 491 565 35,000  Level Kansas City Center
02:47AM 38.5681 -88.0492 39° Northeast 485 558 35,000  Level Kansas City Center
02:48AM 38.6706 -87.9347 41° Northeast 486 559 35,000  Level Kansas City Center
02:49AM 38.7450 -87.8378 45° Northeast 483 556 35,000  Level Indianapolis Center
02:50AM 38.8522 -87.7278 39° Northeast 487 560 35,000  Level Indianapolis Center
02:51AM 38.9514 -87.6106 43° Northeast 481 554 35,000  Level Indianapolis Center
02:52AM 39.0497 -87.4897 44° Northeast 484 557 35,000  Level Indianapolis Center
02:53AM 39.1600 -87.3756 39° Northeast 486 559 35,000  Level Indianapolis Center
02:54AM 39.2569 -87.2564 44° Northeast 485 558 35,000  Level Indianapolis Center
02:55AM 39.3550 -87.1381 43° Northeast 484 557 35,000  Level Indianapolis Center
02:56AM 39.4586 -87.0297 39° Northeast 480 552 35,000  Level Indianapolis Center
02:57AM 39.5525 -86.9081 45° Northeast 478 550 35,000  Level Indianapolis Center
02:58AM 39.6514 -86.7958 41° Northeast 473 544 35,000  Level Indianapolis Center
02:59AM 39.7511 -86.6839 41° Northeast 473 544 35,000  Level Indianapolis Center
03:00AM 39.8431 -86.5614 46° Northeast 469 540 35,000  Level Indianapolis Center
03:01AM 39.9447 -86.4522 39° Northeast 466 536 35,000  Level Indianapolis Center
03:02AM 40.0239 -86.3619 41° Northeast 469 540 35,000  Level Chicago Center
03:03AM 40.1139 -86.2397 46° Northeast 466 536 35,000  Level Chicago Center
03:04AM 40.2136 -86.1308 40° Northeast 467 537 35,000  Level Chicago Center
03:05AM 40.3069 -86.0197 42° Northeast 458 527 35,000  Level Chicago Center
03:06AM 40.3956 -85.8981 46° Northeast 459 528 35,000  Level Chicago Center
03:07AM 40.4919 -85.7878 41° Northeast 460 529 35,000  Level Chicago Center
03:08AM 40.5861 -85.6764 42° Northeast 459 528 35,000  Level Chicago Center
03:09AM 40.6753 -85.5594 45° Northeast 455 524 35,000 -480 Level Chicago Center
03:10AM 40.7656 -85.4458 44° Northeast 452 520 34,100 -960 Descending Chicago Center
03:11AM 40.8561 -85.3222 46° Northeast 464 534 33,100 -1,020 Descending Chicago Center
03:12AM 40.9533 -85.2061 42° Northeast 471 542 32,100 -1,200 Descending Chicago Center
03:13AM 41.0669 -85.0694 42° Northeast 466 536 30,800 -1,200 Descending Chicago Center
03:14AM 41.1561 -84.9511 45° Northeast 460 529 29,700 -1,140 Descending Chicago Center
03:15AM 41.2547 -84.8450 39° Northeast 459 528 28,600 -1,140 Descending Chicago Center
03:16AM 41.3494 -84.7378 40° Northeast 453 521 27,500 -1,140 Descending Chicago Center
03:17AM 41.4350 -84.6203 46° Northeast 447 514 26,400 -1,020 Descending Chicago Center
03:18AM 41.4561 -84.5925 45° Northeast 440 506 26,200 -1,020 Descending Cleveland Center
03:19AM 41.5453 -84.4872 41° Northeast 430 495 25,100 -1,440 Descending Cleveland Center
03:20AM 41.6303 -84.3728 45° Northeast 429 494 23,400 -2,340 Descending Cleveland Center
03:21AM 41.7214 -84.2694 40° Northeast 424 488 20,500 -2,940 Descending Cleveland Center
03:22AM 41.8019 -84.1656 44° Northeast 412 474 17,500 -2,880 Descending Cleveland Center
03:23AM 41.8761 -84.0553 48° Northeast 399 459 14,800 -2,820 Descending Cleveland Center
03:24AM 41.9500 -83.9589 44° Northeast 379 436 11,900 -2,100 Descending Cleveland Center
03:25AM 42.0214 -83.8675 44° Northeast 366 421 10,600 -1,680 Descending Cleveland Center
03:26AM 42.0758 -83.7836 49° Northeast 332 382 8,600 -2,580 Descending Cleveland Center
03:27AM 42.1217 -83.7047 52° Northeast 296 341 5,500 -2,700 Descending Cleveland Center
03:28AM 42.1611 -83.6367 52° Northeast 258 297 3,300 -1,860 Descending Cleveland Center
03:29AM 42.2022 -83.5825 44° Northeast 147 169 1,600 -1,500 Descending Cleveland Center
03:31AM 42.2333 -83.5167 45° Northeast  Level FlightAware Approximate
03:38AM 42.2393 -83.5310 45° Northeast  Level Estimated
03:39AM 42.2393 -83.5310 45° Northeast  Level Estimated